This is the latest recevied weather packets stored in our database for station/object K5FEP. If no packets are shown the sender has not sent any weather packets the latest 1 day(s).
| Time | Temp. | Humidity | Pressure | Rain* | Wind** | Luminosity | Snow |
|---|---|---|---|---|---|---|---|
| 1778011170 | 27.78° C | 29% | 1012.4 hPa | 0 mm | 3.13 m/s, 40° | 773 W/m² | - |
| 1778010868 | 27.78° C | 30% | 1012.3 hPa | 0 mm | 1.34 m/s, 38° | 810 W/m² | - |
| 1778010565 | 27.22° C | 30% | 1012.3 hPa | 0 mm | 1.79 m/s, 26° | 762 W/m² | - |
| 1778010263 | 27.78° C | 29% | 1012.4 hPa | 0 mm | 0.89 m/s, 291° | 305 W/m² | - |
| 1778009962 | 27.78° C | 31% | 1012.4 hPa | 0 mm | 0.89 m/s, 115° | 695 W/m² | - |
| 1778009660 | 28.33° C | 29% | 1012.4 hPa | 0 mm | 0.89 m/s, 14° | 499 W/m² | - |
| 1778009358 | 28.33° C | 31% | 1012.6 hPa | 0 mm | 1.79 m/s, 328° | 845 W/m² | - |
| 1778009056 | 27.78° C | 32% | 1012.7 hPa | 0 mm | 0.89 m/s, 55° | 916 W/m² | - |
| 1778008753 | 27.78° C | 31% | 1012.8 hPa | 0 mm | 0.89 m/s, 70° | 764 W/m² | - |
| 1778008452 | 27.78° C | 29% | 1012.9 hPa | 0 mm | 1.79 m/s, 94° | 603 W/m² | - |
| 1778008148 | 27.78° C | 32% | 1012.7 hPa | 0 mm | 1.34 m/s, 103° | 576 W/m² | - |
| 1778007844 | 27.78° C | 29% | 1012.9 hPa | 0 mm | 1.79 m/s, 97° | 487 W/m² | - |
| 1778007539 | 27.22° C | 30% | 1013.1 hPa | 0 mm | 1.34 m/s, 332° | 747 W/m² | - |
| 1778007236 | 26.67° C | 29% | 1012.9 hPa | 0 mm | 3.13 m/s, 73° | 508 W/m² | - |
| 1778006932 | 27.78° C | 29% | 1013.3 hPa | 0 mm | 2.68 m/s, 39° | 515 W/m² | - |
| 1778006629 | 27.22° C | 31% | 1013.3 hPa | 0 mm | 1.79 m/s, 89° | 881 W/m² | - |
| 1778006326 | 27.22° C | 28% | 1013.3 hPa | 0 mm | 2.68 m/s, 35° | 621 W/m² | - |
| 1778006023 | 28.33° C | 27% | 1013.1 hPa | 0 mm | 5.36 m/s, 121° | 668 W/m² | - |
| 1778005720 | 27.22° C | 31% | 1013.1 hPa | 0 mm | 0.89 m/s, 110° | 840 W/m² | - |
| 1778005417 | 27.22° C | 29% | 1013.6 hPa | 0 mm | 2.24 m/s, 30° | 729 W/m² | - |
| 1778005113 | 27.22° C | 28% | 1013.7 hPa | 0 mm | 3.13 m/s, 59° | 691 W/m² | - |
| 1778004811 | 27.78° C | 28% | 1013.8 hPa | 0 mm | 4.02 m/s, 92° | 941 W/m² | - |
| 1778004507 | 27.78° C | 28% | 1013.8 hPa | 0 mm | 2.24 m/s, 94° | 859 W/m² | - |
| 1778004204 | 27.78° C | 26% | 1013.8 hPa | 0 mm | 5.81 m/s, 96° | 858 W/m² | - |
| 1778003900 | 27.22° C | 29% | 1013.9 hPa | 0 mm | 0.89 m/s, 136° | 888 W/m² | - |
* Rain latest hour (hover to see other rain measurements)
** Current wind speed in m/s (hover to see current wind gust speed)